Flugplatz Uetersen/Heist

EDHE · 石勒苏益格-荷尔斯泰因, 德国

METAR的历史 EDHE · Uetersen/Heist Airport

下面你可以看到过去几天的METARs。 选择年份以浏览从2007年开始的旧METAR。

2022年11月27日

时间 代码 天气 温度 能见度 天花板 METAR/SPECI
06:20
V
3 °C 8 km - 120° 120° 5 kt METAR EDHI 270520Z AUTO 12005KT 8000 // NCD 03/03 Q1025
05:50
V
4 °C 9 km - 120° 120° 5 kt METAR EDHI 270450Z AUTO 12005KT 9000 // NCD 04/04 Q1025
05:20
V
3 °C 10 km+ - 100° 100° 4 kt METAR EDHI 270420Z AUTO 10004KT 9999 // NCD 03/03 Q1025
04:50
V
5 °C 10 km+ - Var Var 2 kt METAR EDHI 270350Z AUTO VRB02KT 9999 // FEW160/// 05/05 Q1025
04:20
V
5 °C 10 km+ - Var Var 2 kt METAR EDHI 270320Z AUTO VRB02KT 9999 // FEW160/// 05/05 Q1026
03:50
V
5 °C 10 km+ - Var Var 2 kt METAR EDHI 270250Z AUTO VRB02KT 9999 // FEW026/// 05/05 Q1026
03:20
V
5 °C 10 km+ - 200° 200° 4 kt METAR EDHI 270220Z AUTO 20004KT 170V230 9999 // NCD 05/05 Q1026
02:50
V
5 °C 10 km+ - Var Var 2 kt METAR EDHI 270150Z AUTO VRB02KT 9999 // NCD 05/05 Q1026
02:20
V
6 °C 10 km+ - Var Var 2 kt METAR EDHI 270120Z AUTO VRB02KT 9999 // NCD 06/06 Q1026
01:50
V
6 °C 10 km+ - 190° 190° 5 kt METAR EDHI 270050Z AUTO 19005KT 160V220 9999 // NCD 06/06 Q1026
01:20
V
6 °C 10 km+ - 190° 190° 5 kt METAR EDHI 270020Z AUTO 19005KT 150V220 9999 // SCT160/// 06/06 Q1026
00:50
V
6 °C 10 km+ 18.000 ft 190° 190° 4 kt METAR EDHI 262350Z AUTO 19004KT 160V220 9999 // FEW160/// BKN180/// 06/06 Q1027
00:20
V
7 °C 9 km 6.400 ft 200° 200° 3 kt METAR EDHI 262320Z AUTO 20003KT 160V260 9000 // FEW049/// BKN064/// OVC180/// 07/07 Q1027

2022年11月26日

时间 代码 天气 温度 能见度 天花板 METAR/SPECI
23:50
V
7 °C 8 km 6.400 ft Var Var 2 kt METAR EDHI 262250Z AUTO VRB02KT 8000 // SCT052/// OVC064/// 07/07 Q1028
23:20
M
7 °C 7 km 6.300 ft 200° 200° 3 kt METAR EDHI 262220Z AUTO 20003KT 170V230 7000 // FEW021/// SCT048/// OVC063/// 07/07 Q1027
22:50
M
7 °C 7 km 6.200 ft 190° 190° 3 kt METAR EDHI 262150Z AUTO 19003KT 160V220 7000 // SCT044/// BKN062/// 07/07 Q1027
22:20
M
7 °C 6 km 4.300 ft 190° 190° 4 kt METAR EDHI 262120Z AUTO 19004KT 150V230 6000 // BKN043/// BKN050/// OVC065/// 07/07 Q1027
21:50
M
7 °C 5 km 5.000 ft Var Var 2 kt METAR EDHI 262050Z AUTO VRB02KT 5000 // FEW020/// OVC050/// 07/07 Q1027
21:20
M
7 °C 5 km 6.400 ft 180° 180° 3 kt METAR EDHI 262020Z AUTO 18003KT 130V230 5000 // FEW035/// SCT041/// OVC064/// 07/07 Q1027
20:50
M
7 °C 5 km 2.300 ft 180° 180° 3 kt METAR EDHI 261950Z AUTO 18003KT 140V220 5000 // BKN023/// BKN067/// 07/07 Q1027
20:20
I
7 °C 3,9 km 2.100 ft Var Var 2 kt METAR EDHI 261920Z AUTO VRB02KT 3900 // FEW006/// BKN021/// OVC030/// 07/07 Q1028
19:50
I
7 °C 3,8 km 500 ft 190° 190° 5 kt METAR EDHI 261850Z AUTO 19005KT 160V220 3800 // OVC005/// 07/07 Q1028
19:20
L
7 °C 4,3 km 400 ft 200° 200° 5 kt METAR EDHI 261820Z AUTO 20005KT 170V240 4300 // OVC004/// 07/07 Q1028
18:50
L
7 °C 3,8 km 300 ft 210° 210° 5 kt METAR EDHI 261750Z AUTO 21005KT 170V240 3800 // OVC003/// 07/07 Q1028
18:20
L
7 °C 3,1 km 300 ft 210° 210° 5 kt METAR EDHI 261720Z AUTO 21005KT 180V240 3100 // OVC003/// 07/07 Q1028
17:50
L
7 °C 3,5 km 300 ft 200° 200° 5 kt METAR EDHI 261650Z AUTO 20005KT 180V240 3500 // OVC003/// 07/07 Q1028
17:20
L
7 °C 4,1 km 300 ft 220° 220° 6 kt METAR EDHI 261620Z AUTO 22006KT 4100 // OVC003/// 07/07 Q1028
16:50
L
7 °C 3,5 km 200 ft 220° 220° 6 kt METAR EDHI 261550Z AUTO 22006KT 3500 // OVC002/// 07/07 Q1028
16:20
L
7 °C 2,8 km 200 ft 220° 220° 6 kt METAR EDHI 261520Z AUTO 22006KT 190V250 2800 // OVC002/// 07/07 Q1028
15:50
L
7 °C 2,3 km 200 ft 230° 230° 7 kt METAR EDHI 261450Z AUTO 23007KT 2300 // OVC002/// 07/06 Q1028
15:20
L
7 °C 2,7 km 300 ft 220° 220° 6 kt METAR EDHI 261420Z AUTO 22006KT 2700 // OVC003/// 07/07 Q1028
14:50
L
7 °C 3,1 km 200 ft 230° 230° 6 kt METAR EDHI 261350Z AUTO 23006KT 200V260 3100 // OVC002/// 07/07 Q1028
14:20
L
6 °C 2,4 km 200 ft 240° 240° 6 kt METAR EDHI 261320Z AUTO 24006KT 2400 // OVC002/// 06/06 Q1028
13:50
L
6 °C 3,7 km 300 ft 230° 230° 7 kt METAR EDHI 261250Z AUTO 23007KT 3700 // OVC003/// 06/06 Q1028
13:20
L
6 °C 3,8 km 200 ft 230° 230° 7 kt METAR EDHI 261220Z AUTO 23007KT 3800 // OVC002/// 06/06 Q1028
12:50
L
6 °C 2,8 km 200 ft 230° 230° 7 kt METAR EDHI 261150Z AUTO 23007KT 2800 // OVC002/// 06/06 Q1028
12:20
L
6 °C 3,4 km 200 ft 230° 230° 6 kt METAR EDHI 261120Z 23006KT 200V260 3400 BR OVC002 06/06 Q1028
11:50
L
5 °C 1,2 km 100 ft 230° 230° 7 kt METAR EDHI 261050Z 23007KT 1200 R23/1500U BR BKN001 OVC005 05/05 Q1028
11:20
L
5 °C 1 km 100 ft 200° 200° 4 kt METAR EDHI 261020Z 20004KT 170V240 1000 R05/1400D BR OVC001 05/05 Q1028
10:50
L
5 °C 1,3 km 100 ft 220° 220° 6 kt METAR EDHI 260950Z 22006KT 1300 R05/1700D BR OVC001 05/05 Q1027
10:20
L
5 °C 1,6 km 200 ft 230° 230° 8 kt METAR EDHI 260920Z 23008KT 1600 BR OVC002 05/05 Q1027
09:50
L
5 °C 2,1 km 100 ft 220° 220° 6 kt METAR EDHI 260850Z AUTO 22006KT 2100 // BKN001/// OVC005/// 05/05 Q1027
09:20
L
5 °C 900 m 400 ft 240° 240° 5 kt METAR EDHI 260820Z AUTO 24005KT 0900 R23/1200U // FEW001/// OVC004/// 05/05 Q1027
08:50
L
5 °C 600 m 200 ft 230° 230° 5 kt METAR EDHI 260750Z AUTO 23005KT 0600 R23/0700N // VV002 05/04 Q1026
08:20
L
5 °C 700 m 200 ft 250° 250° 5 kt METAR EDHI 260720Z AUTO 25005KT 0700 R23/0800N // VV002 05/05 Q1026
07:50
L
5 °C 800 m 200 ft 240° 240° 7 kt METAR EDHI 260650Z AUTO 24007KT 0900 0800 R23/1000D // VV002 05/05 Q1026
07:20
L
5 °C 800 m 200 ft 250° 250° 6 kt METAR EDHI 260620Z AUTO 25006KT 0900 0800 R23/1000U // VV002 05/05 Q1025
06:50
L
5 °C 700 m 200 ft 260° 260° 5 kt METAR EDHI 260550Z AUTO 26005KT 0750 0700 R23/0800N // VV002 05/05 Q1025
06:20
L
4 °C 750 m 200 ft 240° 240° 6 kt METAR EDHI 260520Z AUTO 24006KT 0750 R23/0800N // VV002 04/04 Q1025
05:50
L
4 °C 650 m 200 ft 230° 230° 5 kt METAR EDHI 260450Z AUTO 23005KT 0650 R23/0750N // VV002 04/04 Q1025
05:20
L
4 °C 550 m 200 ft 230° 230° 4 kt METAR EDHI 260420Z AUTO 23004KT 0600 0550 R23/0700N // VV002 04/04 Q1024
04:50
L
4 °C 450 m 200 ft 240° 240° 4 kt METAR EDHI 260350Z AUTO 24004KT 0450 R23/0600N // VV002 04/04 Q1024
04:20
L
3 °C 450 m 200 ft 240° 240° 3 kt METAR EDHI 260320Z AUTO 24003KT 0450 R23/0550N // VV002 03/03 Q1024
03:50
L
4 °C 500 m 200 ft 260° 260° 3 kt METAR EDHI 260250Z AUTO 26003KT 0550 0500 R23/0650D // VV002 04/04 Q1024
03:20
L
4 °C 400 m 200 ft 250° 250° 4 kt METAR EDHI 260220Z AUTO 25004KT 0450 0400 R23/0600U // VV002 04/04 Q1023
02:50
L
5 °C 400 m 300 ft 270° 270° 5 kt METAR EDHI 260150Z AUTO 27005KT 0500 0400 R23/0700D // VV003 05/05 Q1023
02:20
L
3 °C 500 m 900 ft 270° 270° 5 kt METAR EDHI 260120Z AUTO 27005KT 0600 0500 R23/1700U // SCT003/// BKN009/// BKN011/// 03/03 Q1023
01:50
L
5 °C 450 m 3.400 ft 270° 270° 5 kt METAR EDHI 260050Z AUTO 27005KT 0600 0450 R23/1600U // FEW003/// SCT011/// BKN034/// 05/05 Q1022
01:20
L
4 °C 500 m - 260° 260° 5 kt METAR EDHI 260020Z AUTO 26005KT 0900 0500 R23/1200U // FEW004/// SCT021/// 04/04 Q1022
00:50
L
5 °C 700 m - 250° 250° 4 kt METAR EDHI 252350Z AUTO 25004KT 0900 0700 R23/1000D // NCD 05/05 Q1022
00:20
L
6 °C 700 m - 250° 250° 4 kt METAR EDHI 252320Z AUTO 25004KT 0700 R23/0700D // NCD 06/06 Q1021

2022年11月25日

时间 代码 天气 温度 能见度 天花板 METAR/SPECI
23:50
L
5 °C 450 m - 270° 270° 5 kt METAR EDHI 252250Z AUTO 27005KT 5000 0450 R23/P2000N // NCD 05/05 Q1021
23:20
V
6 °C 10 km+ - 280° 280° 6 kt METAR EDHI 252220Z AUTO 28006KT 9999 // FEW008/// 06/06 Q1021
22:50
V
8 °C 10 km+ 5.700 ft 270° 270° 6 kt METAR EDHI 252150Z AUTO 27006KT 9999 // FEW010/// SCT043/// BKN057/// 08/08 Q1020
22:20
V
7 °C 8 km 3.800 ft 260° 260° 5 kt METAR EDHI 252120Z AUTO 26005KT 8000 // SCT011/// BKN038/// OVC054/// 07/07 Q1020
21:50
V
8 °C 8 km 5.300 ft 260° 260° 4 kt METAR EDHI 252050Z AUTO 26004KT 8000 // FEW017/// SCT025/// OVC053/// 08/08 Q1020
21:20
M
7 °C 6 km - 260° 260° 3 kt METAR EDHI 252020Z 26003KT 6000 FEW045 07/07 Q1019
20:50
M
7 °C 7 km - 240° 240° 3 kt METAR EDHI 251950Z 24003KT 7000 FEW017 SCT021 07/07 Q1019
20:20
M
7 °C 6 km - 240° 240° 2 kt METAR EDHI 251920Z 24002KT 6000 FEW019 SCT026 07/07 Q1018
19:50
M
8 °C 6 km - 240° 240° 3 kt METAR EDHI 251850Z 24003KT 6000 FEW021 08/07 Q1018
19:20
M
8 °C 7 km 2.200 ft 220° 220° 4 kt METAR EDHI 251820Z 22004KT 7000 SCT018 BKN022 08/08 Q1017
18:50
M
8 °C 6 km 1.600 ft 200° 200° 3 kt METAR EDHI 251750Z 20003KT 160V230 6000 FEW012 BKN016 08/08 Q1017
18:20
M
8 °C 6 km 1.600 ft Var 000° 0 kt METAR EDHI 251720Z 00000KT 6000 BKN016 08/08 Q1017
17:50
M
8 °C 7 km 1.500 ft Var Var 1 kt METAR EDHI 251650Z VRB01KT 7000 BKN015 08/08 Q1017
17:20
M
8 °C 8 km 1.300 ft 200° 200° 3 kt METAR EDHI 251620Z 20003KT 160V230 8000 BKN013 08/08 Q1016
16:50
M
8 °C 9 km 1.200 ft 210° 210° 3 kt METAR EDHI 251550Z 21003KT 180V240 9000 BKN012 08/08 Q1016
16:20
M
8 °C 10 km+ 1.100 ft 230° 230° 3 kt METAR EDHI 251520Z 23003KT 9999 BKN011 08/08 Q1015
15:50
M
8 °C 10 km+ 1.100 ft 230° 230° 3 kt METAR EDHI 251450Z 23003KT 9999 BKN011 08/08 Q1015
15:20
M
8 °C 10 km+ 1.000 ft 210° 210° 4 kt METAR EDHI 251420Z 21004KT 180V240 9999 BKN010 08/08 Q1015
14:50
M
8 °C 9 km 1.300 ft Var Var 1 kt METAR EDHI 251350Z VRB01KT 9000 FEW009 BKN013 08/08 Q1015
14:20
M
7 °C 9 km 1.200 ft Var Var 2 kt METAR EDHI 251320Z VRB02KT 9000 SCT010 BKN012 07/07 Q1014
13:50
V
7 °C 9 km 4.000 ft Var Var 2 kt METAR EDHI 251250Z VRB02KT 9000 FEW012 SCT016 BKN040 07/07 Q1014
13:20
V
6 °C 10 km+ 4.200 ft Var Var 2 kt METAR EDHI 251220Z VRB02KT 9999 SCT017 BKN042 06/06 Q1014
12:50
V
6 °C 10 km+ 4.400 ft 120° 120° 3 kt METAR EDHI 251150Z 12003KT 070V160 9999 -DZ FEW009 BKN044 06/06 Q1014
12:20
V
6 °C 9 km 4.200 ft 110° 110° 3 kt METAR EDHI 251120Z 11003KT 070V140 9000 -RA SCT027 BKN042 06/06 Q1014
11:50
M
6 °C 10 km+ 2.500 ft 110° 110° 3 kt METAR EDHI 251050Z 11003KT 070V140 9999 FEW018 BKN025 06/06 Q1014
11:20
M
5 °C 5 km 1.300 ft 110° 110° 4 kt METAR EDHI 251020Z 11004KT 080V140 5000 -RA BR BKN013 05/05 Q1014
10:50
M
5 °C 8 km 1.700 ft 110° 110° 5 kt METAR EDHI 250950Z 11005KT 8000 -RA OVC017 05/05 Q1013 RERA
10:20
M
5 °C 9 km 2.100 ft 110° 110° 5 kt METAR EDHI 250920Z 11005KT 060V140 9000 RA OVC021 05/05 Q1013
09:50
M
5 °C 10 km+ 2.500 ft 100° 100° 5 kt METAR EDHI 250850Z 10005KT 070V130 9999 OVC025 05/05 Q1013
09:20
M
5 °C 10 km+ 2.700 ft 110° 110° 5 kt METAR EDHI 250820Z 11005KT 080V160 9999 FEW020 BKN027 05/05 Q1013
08:50
V
4 °C 10 km+ 4.600 ft 110° 110° 5 kt METAR EDHI 250750Z 11005KT 060V150 9999 BKN046 04/04 Q1013
08:20
V
4 °C 10 km+ - 120° 120° 5 kt METAR EDHI 250720Z 12005KT 080V150 9999 SCT044 04/04 Q1013
07:50
V
4 °C 10 km+ - 100° 100° 5 kt METAR EDHI 250650Z 10005KT 070V130 CAVOK 04/04 Q1012
07:20
V
4 °C 10 km+ - 100° 100° 5 kt METAR EDHI 250620Z 10005KT 070V130 CAVOK 04/04 Q1012
06:50
V
4 °C 10 km+ - 130° 130° 4 kt METAR EDHI 250550Z 13004KT 080V200 CAVOK 04/04 Q1012
06:20
V
4 °C 9 km - 100° 100° 7 kt METAR EDHI 250520Z 10007KT 9000 NSC 04/03 Q1012
05:50
M
3 °C 7 km 21.000 ft 100° 100° 5 kt METAR EDHI 250450Z AUTO 10005KT 070V130 7000 // OVC210/// 03/03 Q1012
05:20
M
3 °C 6 km 21.000 ft 100° 100° 6 kt METAR EDHI 250420Z AUTO 10006KT 6000 // FEW180/// BKN210/// BKN240/// 03/03 Q1012
04:50
M
3 °C 5 km 19.000 ft 100° 100° 5 kt METAR EDHI 250350Z AUTO 10005KT 070V140 5000 // FEW004/// BKN190/// 03/03 Q1012
04:20
M
3 °C 5 km 18.000 ft 100° 100° 6 kt METAR EDHI 250320Z AUTO 10006KT 070V130 5000 // FEW001/// BKN180/// 03/03 Q1012
03:50
M
3 °C 5 km 22.000 ft 090° 090° 5 kt METAR EDHI 250250Z AUTO 09005KT 5000 // FEW001/// SCT004/// BKN220/// 03/03 Q1012
03:20
I
3 °C 4 km 21.000 ft 100° 100° 4 kt METAR EDHI 250220Z AUTO 10004KT 070V140 4000 // FEW001/// SCT004/// BKN210/// 03/03 Q1012
02:50
L
3 °C 2 km 400 ft 100° 100° 5 kt METAR EDHI 250150Z AUTO 10005KT 070V130 2000 // BKN004/// BKN250/// 03/03 Q1012
02:20
L
3 °C 1 km 100 ft 090° 090° 5 kt METAR EDHI 250120Z AUTO 09005KT 1200 1000 R23/P2000N // VV001 03/03 Q1012
01:50
L
2 °C 900 m - 090° 090° 3 kt METAR EDHI 250050Z AUTO 09003KT 060V120 2600 0900 R23/P2000N // SCT003/// 02/02 Q1012
01:20
L
2 °C 1,3 km - 080° 080° 3 kt METAR EDHI 250020Z AUTO 08003KT 1800 1300 R23/P2000N // SCT004/// 02/02 Q1013
00:50
I
2 °C 4,5 km - 090° 090° 3 kt METAR EDHI 242350Z AUTO 09003KT 4500 // FEW003/// SCT029/// 02/02 Q1013
00:20
M
3 °C 5 km - 100° 100° 4 kt METAR EDHI 242320Z AUTO 10004KT 5000 // SCT003/// 03/03 Q1013

2022年11月24日

时间 代码 天气 温度 能见度 天花板 METAR/SPECI
23:50
M
3 °C 6 km - 100° 100° 4 kt METAR EDHI 242250Z AUTO 10004KT 6000 // SCT029/// 03/03 Q1013
23:20
I
4 °C 2,4 km - 120° 120° 2 kt METAR EDHI 242220Z AUTO 12002KT 2400 // SCT023/// SCT027/// 04/04 Q1013
22:50
L
5 °C 1,3 km - Var Var 2 kt METAR EDHI 242150Z AUTO VRB02KT 5000 1300 R23/P2000N // NCD 05/05 Q1013
22:20
I
5 °C 2,8 km - 180° 180° 3 kt METAR EDHI 242120Z AUTO 18003KT 150V220 6000 2800 // NCD 05/05 Q1013
21:50
V
5 °C 9 km - 180° 180° 4 kt METAR EDHI 242050Z AUTO 18004KT 140V210 9000 // NCD 05/05 Q1012
21:20
V
5 °C 10 km+ - 200° 200° 5 kt METAR EDHI 242020Z AUTO 20005KT 9999 // FEW029/// 05/05 Q1012
20:50
M
6 °C 10 km+ 2.500 ft 190° 190° 5 kt METAR EDHI 241950Z 19005KT 9999 BKN025 06/06 Q1012
20:20
V
5 °C 10 km+ - 210° 210° 3 kt METAR EDHI 241920Z 21003KT 9999 FEW023 SCT029 05/05 Q1012
19:50
V
5 °C 10 km+ - 220° 220° 4 kt METAR EDHI 241850Z 22004KT 9999 FEW030 05/05 Q1012
19:20
V
6 °C 10 km+ - 240° 240° 4 kt METAR EDHI 241820Z 24004KT CAVOK 06/06 Q1012
18:50
V
5 °C 10 km+ - 220° 220° 4 kt METAR EDHI 241750Z 22004KT 9999 NSC 05/05 Q1012
18:20
V
6 °C 10 km+ - 180° 180° 5 kt METAR EDHI 241720Z 18005KT 150V210 9999 NSC 06/06 Q1011
17:50
V
7 °C 10 km+ - 170° 170° 4 kt METAR EDHI 241650Z 17004KT 140V200 9999 NSC 07/07 Q1011
17:20
V
7 °C 10 km+ - 150° 150° 3 kt METAR EDHI 241620Z 15003KT 130V190 9999 FEW027 07/06 Q1011
16:50
M
9 °C 10 km+ 2.700 ft 190° 190° 6 kt METAR EDHI 241550Z 19006KT 9999 BKN027 09/07 Q1011
16:20
M
9 °C 10 km+ 2.600 ft 190° 190° 6 kt METAR EDHI 241520Z 19006KT 9999 SCT023 BKN026 09/07 Q1011
15:50
M
9 °C 10 km+ 1.800 ft Var Var 2 kt METAR EDHI 241450Z VRB02KT 9999 BKN018 09/08 Q1010
15:20
M
9 °C 10 km+ 1.900 ft 180° 180° 3 kt METAR EDHI 241420Z 18003KT 140V200 9999 BKN019 09/08 Q1010
14:50
M
9 °C 10 km+ 1.800 ft 190° 190° 5 kt METAR EDHI 241350Z 19005KT 9999 BKN018 09/07 Q1010
14:20
M
10 °C 10 km+ 1.800 ft 220° 220° 7 kt METAR EDHI 241320Z 22007KT 9999 BKN018 10/07 Q1009
13:50
M
10 °C 10 km+ 1.700 ft 210° 210° 7 kt METAR EDHI 241250Z 21007KT 170V240 9999 BKN017 10/08 Q1009
13:20
V
10 °C 10 km+ 3.900 ft 220° 220° 8 kt METAR EDHI 241220Z 22008KT 9999 SCT015 BKN039 10/08 Q1009
12:50
V
10 °C 10 km+ 3.900 ft 220° 220° 7 kt METAR EDHI 241150Z 22007KT 180V250 9999 SCT015 BKN039 10/08 Q1009
12:20
M
10 °C 10 km+ 1.400 ft 230° 230° 7 kt METAR EDHI 241120Z 23007KT 9999 BKN014 10/08 Q1008
11:50
M
9 °C 10 km+ 2.700 ft 210° 210° 6 kt METAR EDHI 241050Z 21006KT 180V240 9999 SCT013 BKN027 09/08 Q1008
11:20
M
9 °C 10 km+ 2.500 ft 220° 220° 5 kt METAR EDHI 241020Z 22005KT 170V280 9999 FEW013 BKN025 09/08 Q1008
10:50
V
8 °C 10 km+ 4.700 ft 210° 210° 4 kt METAR EDHI 240950Z 21004KT 160V250 9999 SCT022 BKN047 08/07 Q1008

我们和第三方通过cookies跟踪您在我们网站上的互联网行为。如果你继续,我们认为你同意我们的饼干政策